• Join FlightAware (Why Join?)
  • Login
  • US Flag 
05:50AM EST


 

Airport Tracker/Info


-or-


 

Live Flight TrackerFlight Track Log ✈ SWA34 ✈ 05-May-2013 ✈ KATL - KHOU

Flight Track Log - Related Links

Times and Time Zones

All times are in EDT time to prevent confusion due to time zone crossing. See the SWA34 flight status page for this flight to view local times or setup timezone preferences in your user account.

Time Position Orientation Groundspeed Altitude Reporting Facility
EDT Latitude Longitude Course Direction KTS MPH feet Rate Location/Type
01:35PM 33.6500 -84.4333 270° West 156 180 2,100  Level Atlanta TRACON
01:37PM 33.6500 -84.5167 270° West 244 281 4,600 2,820 Climbing Atlanta TRACON
01:37PM 33.6667 -84.6000 284° West 272 313 7,800 2,880 Climbing Atlanta TRACON
01:39PM 33.6897 -84.7828 279° West 293 337 13,100 2,880 Climbing Atlanta Center
01:40PM 33.6558 -84.8672 244° Southwest 278 320 16,500 2,760 Climbing Atlanta Center
01:41PM 33.6197 -84.9592 245° Southwest 290 334 18,700 2,400 Climbing Atlanta Center
01:42PM 33.5836 -85.0486 244° Southwest 321 369 21,400 2,580 Climbing Atlanta Center
01:43PM 33.5431 -85.1453 243° Southwest 321 369 23,900 2,220 Climbing Atlanta Center
01:44PM 33.5086 -85.2447 247° West 326 375 25,900 1,740 Climbing Atlanta Center
01:45PM 33.4886 -85.3664 259° West 345 397 27,400 1,500 Climbing Atlanta Center
01:46PM 33.4706 -85.4906 260° West 378 435 28,900 1,620 Climbing Atlanta Center
01:47PM 33.4503 -85.6147 259° West 388 447 30,700 1,680 Climbing Atlanta Center
01:48PM 33.4297 -85.7439 259° West 393 452 32,300 1,440 Climbing Atlanta Center
01:49PM 33.4069 -85.8778 259° West 386 444 33,600 1,200 Climbing Atlanta Center
01:50PM 33.3861 -86.0142 260° West 397 457 34,700 1,320 Climbing Atlanta Center
01:51PM 33.3650 -86.1506 260° West 410 472 36,300 1,380 Climbing Atlanta Center
01:52PM 33.3439 -86.2792 259° West 410 472 37,500 840 Climbing Atlanta Center
01:53PM 33.3225 -86.4131 259° West 410 472 38,000 240 Climbing Atlanta Center
01:54PM 33.3017 -86.5267 258° West 410 472 38,000  Level Atlanta Center
01:55PM 33.2775 -86.6800 259° West 415 478 38,000  Level Atlanta Center
01:56PM 33.2558 -86.8136 259° West 415 478 38,000  Level Atlanta Center
01:57PM 33.2319 -86.9469 258° West 420 483 38,000  Level Atlanta Center
01:58PM 33.1900 -87.0422 242° Southwest 413 475 38,000  Level Atlanta Center
01:59PM 33.1217 -87.1814 240° Southwest 418 481 38,000  Level Atlanta Center
02:00PM 33.0686 -87.3008 242° Southwest 418 481 38,000  Level Atlanta Center
02:02PM 32.9833 -87.4919 242° Southwest 441 507 38,000  Level Memphis Center
02:03PM 32.9275 -87.6100 241° Southwest 430 495 38,000  Level Memphis Center
02:04PM 32.8739 -87.7303 242° Southwest 425 489 38,000  Level Memphis Center
02:05PM 32.8219 -87.8481 242° Southwest 420 483 38,000  Level Memphis Center
02:06PM 32.7661 -87.9806 243° Southwest 414 476 38,000  Level Memphis Center
02:07PM 32.7244 -88.1003 248° West 408 470 38,000  Level Memphis Center
02:08PM 32.6869 -88.2247 250° West 403 464 38,000  Level Memphis Center
02:09PM 32.6472 -88.3514 250° West 403 464 38,000  Level Memphis Center
02:10PM 32.6097 -88.4731 250° West 403 464 38,000  Level Memphis Center
02:11PM 32.5675 -88.5972 248° West 403 464 38,000  Level Memphis Center
02:12PM 32.5275 -88.7261 250° West 414 476 38,000  Level Memphis Center
02:13PM 32.4875 -88.8500 249° West 414 476 38,000  Level Memphis Center
02:14PM 32.4472 -88.9764 249° West 414 476 38,000  Level Memphis Center
02:15PM 32.4089 -89.1022 250° West 414 476 38,000  Level Memphis Center
02:16PM 32.3681 -89.2233 248° West 414 476 38,000  Level Memphis Center
02:17PM 32.3297 -89.3469 250° West 414 476 38,000  Level Memphis Center
02:18PM 32.2889 -89.4678 248° West 414 476 38,000  Level Memphis Center
02:19PM 32.2478 -89.5908 248° West 414 476 38,000  Level Memphis Center
02:20PM 32.2089 -89.7142 250° West 414 476 38,000  Level Memphis Center
02:21PM 32.1678 -89.8369 248° West 414 476 38,000  Level Memphis Center
02:22PM 32.1264 -89.9575 248° West 414 476 38,000  Level Memphis Center
02:23PM 32.0869 -90.0778 249° West 414 476 38,000  Level Memphis Center
02:24PM 32.0456 -90.2031 249° West 414 476 38,000  Level Memphis Center
02:25PM 32.0058 -90.3256 249° West 414 476 38,000  Level Memphis Center
02:27PM 31.9108 -90.6097 249° West 413 475 38,000  Level Houston Center
02:29PM 31.8614 -90.7578 249° West 407 468 38,000  Level Houston Center
02:30PM 31.8197 -90.8811 248° West 411 473 38,000  Level Houston Center
02:31PM 31.7778 -91.0056 248° West 406 467 38,000  Level Houston Center
02:32PM 31.7353 -91.1300 248° West 412 474 38,000  Level Houston Center
02:33PM 31.6908 -91.2500 247° West 404 465 38,000  Level Houston Center
02:34PM 31.6422 -91.3936 248° West 395 455 38,000  Level Houston Center
02:35PM 31.6008 -91.5139 248° West 396 456 38,000  Level Houston Center
02:36PM 31.5606 -91.6350 249° West 398 458 38,000  Level Houston Center
02:37PM 31.5178 -91.7558 247° West 400 460 38,000  Level Houston Center
02:38PM 31.4742 -91.8783 247° West 406 467 38,000  Level Houston Center
02:39PM 31.4325 -92.0011 248° West 405 466 38,000  Level Houston Center
02:40PM 31.3881 -92.1281 248° West 398 458 38,000  Level Houston Center
02:41PM 31.3450 -92.2478 247° West 399 459 38,000  Level Houston Center
02:42PM 31.2950 -92.3903 248° West 397 457 38,000  Level Houston Center
02:43PM 31.2508 -92.5111 247° West 403 464 38,000  Level Houston Center
02:44PM 31.2075 -92.6297 247° West 400 460 38,000  Level Houston Center
02:45PM 31.1647 -92.7486 247° West 399 459 38,000  Level Houston Center
02:46PM 31.1217 -92.8658 247° West 395 455 38,000  Level Houston Center
02:47PM 31.0689 -93.0042 246° West 391 450 38,000  Level Houston Center
02:48PM 31.0258 -93.1200 247° West 391 450 38,000  Level Houston Center
02:49PM 30.9828 -93.2369 247° West 393 452 38,000  Level Houston Center
02:50PM 30.9389 -93.3533 246° West 395 455 38,000  Level Houston Center
02:51PM 30.8961 -93.4700 247° West 395 455 38,000 -780 Level Houston Center
02:52PM 30.8439 -93.6094 246° West 394 453 36,500 -1,980 Descending Houston Center
02:53PM 30.7997 -93.7239 246° West 392 451 34,000 -1,860 Descending Houston Center
02:54PM 30.7561 -93.8408 247° West 397 457 32,700 -2,040 Descending Houston Center
02:55PM 30.7111 -93.9592 246° West 402 463 29,800 -2,700 Descending Houston Center
02:56PM 30.6658 -94.0778 246° West 404 465 27,200 -2,220 Descending Houston Center
02:57PM 30.6308 -94.1689 246° West 390 449 26,100 -1,980 Descending Houston Center
02:58PM 30.6133 -94.2142 246° West 392 451 25,200 -2,100 Descending Houston Center
02:59PM 30.5719 -94.3233 246° West 377 434 23,100 -2,040 Descending Houston Center
02:59PM 30.5589 -94.3558 245° Southwest 369 425 22,500 -2,040 Descending Houston Center
03:00PM 30.5303 -94.4283 245° Southwest 363 418 21,000 -2,040 Descending Houston Center
03:01PM 30.4856 -94.5333 244° Southwest 354 407 19,000 -1,800 Descending Houston Center
03:02PM 30.4300 -94.6169 232° Southwest 350 403 17,300 -2,160 Descending Houston Center
03:02PM 30.4017 -94.6603 233° Southwest 352 405 16,300 -2,520 Descending Houston Center
03:03PM 30.3608 -94.7256 234° Southwest 350 403 14,700 -2,040 Descending Houston Center
03:03PM 30.3450 -94.7497 233° Southwest 348 400 14,200 -1,680 Descending Houston Center
03:04PM 30.3053 -94.8142 234° Southwest 343 395 13,000 -840 Descending Houston Center
03:05PM 30.2317 -94.9264 233° Southwest 328 377 12,600 -540 Descending Houston Center
03:06PM 30.1950 -94.9817 233° Southwest 328 377 11,900 -1,080 Descending Houston Center
03:07PM 30.1117 -95.0814 226° Southwest 347 399 10,600 -960 Descending Houston Center
03:08PM 30.0336 -95.1147 200° South 334 384 10,000 -300 Descending Houston Center
03:09PM 29.9361 -95.1561 200° South 330 380 10,000 -420 Level Houston Center
03:10PM 29.8661 -95.1869 201° Southwest 316 364 9,200 -960 Descending Houston Center
03:11PM 29.7908 -95.2194 201° Southwest 297 342 8,100 -960 Descending Houston Center
03:12PM 29.7217 -95.1869 158° South 285 328 7,300 -1,080 Descending Houston Center
03:13PM 29.6678 -95.1225 134° Southeast 274 315 5,900 -1,500 Descending Houston Center
03:14PM 29.6056 -95.1086 169° South 253 291 4,200 -1,260 Descending Houston Center
03:16PM 29.6301 -95.2506 283° West  Level FlightAware Approximate
03:16PM 29.5708 -95.1917 283° West 185 213 2,100  Level Houston Center
03:17PM 29.5994 -95.2250 315° West 158 182 1,100 -900 Descending Houston Center
03:18PM 29.6306 -95.2608 315° West 140 161 300 -840 Descending Houston Center